Archiv-/Tagesdaten

--Timestamp---	Temp	Chill	HIndex	Humid	Dewpt	 Wind 	HiWind	WindDir	Rain 	Barom	Solar	 ET  	 UV 
--------------	----	-----	------	-----	-----	------	------	-------	-----	-----	-----	-----	----
20091006 00:00	12.9	12.9	12.9	89	11.2	6	11	202	0.0	1015.8	0	0.025	0.0
20091006 00:05	12.9	12.9	12.9	89	11.2	5	11	180	0.0	1015.5	0	0.000	0.0
20091006 00:10	12.9	12.9	12.9	90	11.3	5	10	180	0.0	1015.5	0	0.000	0.0
20091006 00:15	12.9	12.9	12.9	90	11.3	5	10	180	0.0	1015.4	0	0.000	0.0
20091006 00:20	12.9	12.9	12.9	90	11.3	5	11	180	0.0	1015.4	0	0.000	0.0
20091006 00:25	12.8	12.8	12.8	90	11.2	5	10	180	0.0	1015.4	0	0.000	0.0
20091006 00:30	12.8	12.8	12.8	90	11.2	5	10	180	0.0	1015.5	0	0.000	0.0
20091006 00:35	12.8	12.8	12.8	90	11.2	3	10	180	0.0	1015.4	0	0.000	0.0
20091006 00:40	12.8	12.8	12.8	90	11.2	5	8	180	0.0	1015.5	0	0.000	0.0
20091006 00:45	12.8	12.8	12.8	90	11.2	5	8	180	0.0	1015.5	0	0.000	0.0
20091006 00:50	12.8	12.8	12.8	90	11.2	5	8	180	0.0	1015.4	0	0.000	0.0
20091006 00:55	12.8	12.8	12.8	90	11.2	5	8	180	0.0	1015.3	0	0.000	0.0
20091006 01:00	12.8	12.8	12.8	90	11.2	5	10	202	0.0	1015.4	0	0.000	0.0
20091006 01:05	12.8	12.8	12.8	90	11.2	5	10	180	0.0	1015.4	0	0.000	0.0
20091006 01:10	12.9	12.9	12.9	89	11.1	5	8	180	0.0	1015.5	0	0.000	0.0
20091006 01:15	12.8	12.8	12.8	89	11.1	3	10	158	0.0	1015.5	0	0.000	0.0
20091006 01:20	12.8	12.8	12.8	89	11.0	5	11	180	0.0	1015.5	0	0.000	0.0
20091006 01:25	12.7	12.7	12.7	89	11.0	3	8	180	0.0	1015.6	0	0.000	0.0
20091006 01:30	12.6	12.6	12.6	89	10.8	3	6	180	0.0	1015.6	0	0.000	0.0
20091006 01:35	12.6	12.6	12.6	89	10.8	3	10	180	0.0	1015.7	0	0.000	0.0
20091006 01:40	12.5	12.5	12.5	89	10.7	3	6	202	0.0	1015.8	0	0.000	0.0
20091006 01:45	12.5	12.5	12.5	90	10.9	3	8	202	0.0	1015.9	0	0.000	0.0
20091006 01:50	12.5	12.5	12.5	90	10.9	5	8	158	0.0	1015.9	0	0.000	0.0
20091006 01:55	12.6	12.6	12.6	90	11.0	5	10	202	0.0	1016.0	0	0.000	0.0
20091006 02:00	12.6	12.6	12.6	89	10.8	3	8	202	0.0	1016.0	0	0.000	0.0
20091006 02:05	12.7	12.7	12.7	89	10.9	3	8	202	0.0	1016.0	0	0.000	0.0
20091006 02:10	12.7	12.7	12.7	89	10.9	5	10	202	0.0	1015.9	0	0.000	0.0
20091006 02:15	12.7	12.7	12.7	89	10.9	6	11	202	0.0	1015.9	0	0.000	0.0
20091006 02:20	12.7	12.7	12.7	89	10.9	6	14	202	0.0	1015.8	0	0.000	0.0
20091006 02:25	12.7	12.7	12.7	89	10.9	6	11	202	0.0	1015.8	0	0.000	0.0
20091006 02:30	12.6	12.6	12.6	89	10.8	6	10	202	0.0	1015.7	0	0.000	0.0
20091006 02:35	12.6	12.6	12.6	89	10.8	6	10	202	0.0	1015.8	0	0.000	0.0
20091006 02:40	12.4	12.4	12.4	89	10.7	6	11	202	0.0	1015.8	0	0.000	0.0
20091006 02:45	12.3	12.3	12.3	89	10.6	6	11	202	0.0	1015.9	0	0.000	0.0
20091006 02:50	12.3	12.3	12.3	89	10.5	8	11	202	0.0	1015.9	0	0.000	0.0
20091006 02:55	12.2	12.2	12.2	89	10.4	10	14	202	0.0	1016.0	0	0.000	0.0
20091006 03:00	12.1	12.1	12.1	89	10.4	8	11	202	0.0	1016.0	0	0.025	0.0
20091006 03:05	12.1	12.1	12.1	89	10.4	8	11	202	0.0	1016.0	0	0.000	0.0
20091006 03:10	12.1	12.1	12.1	89	10.3	6	11	202	0.0	1016.1	0	0.000	0.0
20091006 03:15	12.0	12.0	12.0	89	10.2	6	10	202	0.0	1016.0	0	0.000	0.0
20091006 03:20	11.9	11.9	11.9	89	10.2	6	10	202	0.0	1016.1	0	0.000	0.0
20091006 03:25	11.8	11.8	11.8	89	10.1	3	8	202	0.0	1016.1	0	0.000	0.0
20091006 03:30	11.8	11.8	11.8	89	10.0	3	6	225	0.0	1016.0	0	0.000	0.0
20091006 03:35	11.7	11.7	11.7	89	10.0	5	8	225	0.0	1016.0	0	0.000	0.0
20091006 03:40	11.7	11.7	11.7	89	10.0	5	10	180	0.0	1016.0	0	0.000	0.0
20091006 03:45	11.7	11.7	11.7	89	10.0	3	8	202	0.0	1015.9	0	0.000	0.0
20091006 03:50	11.7	11.7	11.7	89	10.0	5	10	202	0.0	1015.9	0	0.000	0.0
20091006 03:55	11.8	11.8	11.8	89	10.0	5	10	202	0.0	1015.9	0	0.000	0.0
20091006 04:00	11.9	11.9	11.9	89	10.1	5	11	202	0.0	1015.9	0	0.000	0.0
20091006 04:05	11.9	11.9	11.9	89	10.2	3	6	180	0.0	1016.0	0	0.000	0.0
20091006 04:10	12.0	12.0	12.0	88	10.1	3	6	180	0.0	1016.0	0	0.000	0.0
20091006 04:15	12.1	12.1	12.1	88	10.1	3	8	180	0.0	1015.9	0	0.000	0.0
20091006 04:20	12.1	12.1	12.1	88	10.1	3	5	180	0.0	1015.8	0	0.000	0.0
20091006 04:25	12.1	12.1	12.1	88	10.1	5	6	180	0.0	1015.9	0	0.000	0.0
20091006 04:30	12.1	12.1	12.1	88	10.2	5	10	180	0.0	1015.7	0	0.000	0.0
20091006 04:35	12.2	12.2	12.2	88	10.2	6	10	202	0.0	1015.8	0	0.000	0.0
20091006 04:40	12.2	12.2	12.2	88	10.3	8	11	202	0.0	1015.7	0	0.000	0.0
20091006 04:45	12.3	12.3	12.3	88	10.4	8	14	202	0.0	1015.6	0	0.000	0.0
20091006 04:50	12.5	12.5	12.5	87	10.4	6	14	202	0.0	1015.7	0	0.000	0.0
20091006 04:55	12.6	12.6	12.6	87	10.5	8	13	202	0.0	1015.5	0	0.000	0.0
20091006 05:00	12.8	12.8	12.8	86	10.5	6	11	202	0.0	1015.5	0	0.025	0.0
20091006 05:05	12.9	12.9	12.9	86	10.6	6	14	180	0.0	1015.6	0	0.000	0.0
20091006 05:10	13.0	13.0	13.0	86	10.7	5	11	225	0.0	1015.7	0	0.000	0.0
20091006 05:15	13.1	13.1	13.1	85	10.6	6	11	202	0.0	1015.5	0	0.000	0.0
20091006 05:20	13.2	13.2	13.2	85	10.8	6	10	202	0.0	1015.4	0	0.000	0.0
20091006 05:25	13.3	13.3	13.3	84	10.7	8	16	202	0.0	1015.3	0	0.000	0.0
20091006 05:30	13.4	13.4	13.4	84	10.8	8	19	202	0.0	1015.3	0	0.000	0.0
20091006 05:35	13.6	13.6	13.6	83	10.7	8	16	202	0.0	1015.3	0	0.000	0.0
20091006 05:40	13.6	13.6	13.6	83	10.8	8	16	202	0.0	1015.3	0	0.000	0.0
20091006 05:45	13.7	13.7	13.7	83	10.8	8	16	202	0.0	1015.3	0	0.000	0.0
20091006 05:50	13.7	13.7	13.7	83	10.9	8	14	202	0.0	1015.3	0	0.000	0.0
20091006 05:55	13.7	13.7	13.7	83	10.9	6	11	202	0.0	1015.3	0	0.000	0.0
20091006 06:00	13.8	13.8	13.8	83	10.9	6	13	202	0.0	1015.3	0	0.025	0.0
20091006 06:05	13.8	13.8	13.8	83	10.9	6	11	225	0.0	1015.3	0	0.000	0.0
20091006 06:10	13.8	13.8	13.8	83	10.9	8	14	202	0.0	1015.2	0	0.000	0.0
20091006 06:15	13.8	13.8	13.8	83	11.0	6	16	202	0.0	1015.2	0	0.000	0.0
20091006 06:20	13.9	13.9	13.9	82	10.9	8	13	202	0.0	1015.2	0	0.000	0.0
20091006 06:25	14.1	14.1	14.1	82	11.0	8	14	180	0.0	1015.2	0	0.000	0.0
20091006 06:30	14.1	14.1	14.1	82	11.1	5	10	202	0.0	1015.2	0	0.000	0.0
20091006 06:35	14.2	14.2	14.2	82	11.1	5	8	202	0.0	1015.2	0	0.000	0.0
20091006 06:40	14.2	14.2	14.2	82	11.1	6	13	202	0.0	1015.3	0	0.000	0.0
20091006 06:45	14.2	14.2	14.2	82	11.2	6	10	225	0.0	1015.2	0	0.000	0.0
20091006 06:50	14.2	14.2	14.2	82	11.2	6	14	202	0.0	1015.2	0	0.000	0.0
20091006 06:55	14.2	14.2	14.2	82	11.2	6	11	202	0.0	1015.2	0	0.000	0.0
20091006 07:00	14.2	14.2	14.2	82	11.2	8	14	202	0.0	1015.2	0	0.025	0.0
20091006 07:05	14.2	14.2	14.2	82	11.1	5	11	225	0.0	1015.3	0	0.000	0.0
20091006 07:10	14.1	14.1	14.1	83	11.3	5	8	225	0.0	1015.4	0	0.000	0.0
20091006 07:15	14.0	14.0	14.0	83	11.2	6	10	202	0.0	1015.3	0	0.000	0.0
20091006 07:20	13.9	13.9	13.9	83	11.1	6	10	202	0.0	1015.3	0	0.000	0.0
20091006 07:25	13.9	13.9	13.9	83	11.0	5	8	180	0.0	1015.3	0	0.000	0.0
20091006 07:30	13.8	13.8	13.8	83	11.0	5	8	202	0.0	1015.3	3	0.000	0.0
20091006 07:35	13.8	13.8	13.8	83	11.0	5	10	158	0.0	1015.4	6	0.000	0.0
20091006 07:40	13.8	13.8	13.8	83	10.9	5	8	202	0.0	1015.4	8	0.000	0.0
20091006 07:45	13.8	13.8	13.8	83	10.9	3	8	202	0.0	1015.4	11	0.000	0.0
20091006 07:50	13.8	13.8	13.8	83	10.9	3	8	180	0.0	1015.6	20	0.000	0.0
20091006 07:55	13.7	13.7	13.7	83	10.9	3	10	225	0.0	1015.6	20	0.000	0.0
20091006 08:00	13.7	13.7	13.7	83	10.9	3	6	202	0.0	1015.6	24	0.025	0.0
20091006 08:05	13.7	13.7	13.7	83	10.9	2	5	202	0.0	1015.7	25	0.000	0.0
20091006 08:10	13.7	13.7	13.7	83	10.9	0	3	202	0.0	1015.8	38	0.000	0.0
20091006 08:15	13.7	13.7	13.7	84	11.1	0	5	202	0.0	1015.7	54	0.000	0.0
20091006 08:20	13.8	13.8	13.8	83	10.9	5	10	202	0.0	1015.7	63	0.000	0.0
20091006 08:25	14.0	14.0	14.0	83	11.2	6	10	202	0.0	1015.7	62	0.000	0.0
20091006 08:30	14.2	14.2	14.2	82	11.2	5	10	202	0.0	1015.7	66	0.000	0.0
20091006 08:35	14.4	14.4	14.4	82	11.4	5	10	202	0.0	1015.8	88	0.000	0.0
20091006 08:40	14.6	14.6	14.6	81	11.4	6	11	202	0.0	1015.9	78	0.000	0.0
20091006 08:45	14.9	14.9	14.9	80	11.5	6	11	202	0.0	1015.7	79	0.000	0.0
20091006 08:50	15.0	15.0	15.0	80	11.6	6	11	202	0.0	1015.8	108	0.000	0.0
20091006 08:55	15.3	15.3	15.3	79	11.7	6	11	202	0.0	1015.8	116	0.000	0.0
20091006 09:00	15.6	15.6	15.6	79	11.9	6	11	202	0.0	1015.8	98	0.051	0.0
20091006 09:05	15.8	15.8	15.8	79	12.1	6	11	202	0.0	1015.8	107	0.000	0.4
20091006 09:10	16.0	16.0	16.0	78	12.2	6	11	202	0.0	1015.9	127	0.000	0.5
20091006 09:15	16.3	16.3	16.3	77	12.2	8	14	225	0.0	1015.9	110	0.000	0.5
20091006 09:20	16.4	16.4	16.4	76	12.2	8	14	202	0.0	1015.7	92	0.000	0.6
20091006 09:25	16.6	16.6	16.6	75	12.1	6	13	225	0.0	1015.7	76	0.000	0.7
20091006 09:30	16.7	16.7	16.7	76	12.4	5	11	225	0.0	1015.8	60	0.000	0.7
20091006 09:35	16.7	16.7	16.7	76	12.5	8	14	225	0.0	1015.8	53	0.000	0.1
20091006 09:40	16.9	16.9	16.9	75	12.4	8	13	225	0.0	1015.7	47	0.000	0.0
20091006 09:45	17.1	17.1	17.1	74	12.4	8	14	225	0.0	1015.7	47	0.000	0.0
20091006 09:50	17.3	17.3	17.3	74	12.6	6	11	202	0.0	1015.7	46	0.000	0.0
20091006 09:55	17.5	17.5	17.5	74	12.8	6	14	225	0.0	1015.7	48	0.000	0.0
20091006 10:00	17.8	17.8	17.8	72	12.7	6	13	248	0.0	1015.6	49	0.076	0.0
20091006 10:05	18.2	18.2	18.2	70	12.7	6	13	248	0.0	1015.5	49	0.000	0.0
20091006 10:10	18.6	18.6	18.6	69	12.8	6	11	248	0.0	1015.7	50	0.000	0.0
20091006 10:15	18.9	18.9	18.9	67	12.7	10	18	248	0.0	1015.7	53	0.000	0.0
20091006 10:20	19.2	19.2	19.2	67	12.9	8	14	248	0.0	1015.6	54	0.000	0.0
20091006 10:25	19.4	19.4	19.4	66	12.9	10	16	248	0.0	1015.7	54	0.000	0.0
20091006 10:30	19.6	19.6	19.6	65	12.8	8	16	248	0.0	1015.6	54	0.000	0.0
20091006 10:35	19.7	19.7	19.7	64	12.7	10	18	248	0.0	1015.6	55	0.000	0.5
20091006 10:40	19.8	19.8	19.8	64	12.8	8	16	248	0.0	1015.6	56	0.000	1.4
20091006 10:45	19.9	19.9	19.9	63	12.7	11	18	270	0.0	1015.6	58	0.000	1.5
20091006 10:50	20.1	20.1	20.1	62	12.5	10	21	270	0.0	1015.7	61	0.000	1.5
20091006 10:55	20.2	20.2	20.2	63	12.9	10	18	248	0.0	1015.7	64	0.000	1.6
20091006 11:00	20.4	20.4	20.4	63	13.1	10	18	225	0.0	1015.6	70	0.076	1.7
20091006 11:05	20.6	20.6	20.6	63	13.3	10	18	248	0.0	1015.6	76	0.000	1.7
20091006 11:10	20.8	20.8	20.8	61	13.0	13	19	248	0.0	1015.5	89	0.000	1.8
20091006 11:15	20.9	20.9	20.9	61	13.1	11	21	248	0.0	1015.5	97	0.000	1.9
20091006 11:20	21.1	21.1	21.1	61	13.2	10	23	248	0.0	1015.5	116	0.000	2.0
20091006 11:25	21.3	21.3	21.3	61	13.4	10	23	225	0.0	1015.5	506	0.000	2.1
20091006 11:30	21.6	21.6	21.6	60	13.5	8	16	248	0.0	1015.5	477	0.000	2.7
20091006 11:35	21.9	21.9	21.9	60	13.8	8	21	248	0.0	1015.4	513	0.000	2.8
20091006 11:40	22.1	22.1	22.1	59	13.7	11	18	248	0.0	1015.4	496	0.000	2.9
20091006 11:45	22.4	22.4	22.4	59	14.0	8	18	270	0.0	1015.4	509	0.000	3.0
20091006 11:50	22.7	22.7	22.7	58	14.0	10	19	270	0.0	1015.2	557	0.000	3.1
20091006 11:55	22.9	22.9	22.9	56	13.6	11	21	248	0.0	1015.2	594	0.000	3.2
20091006 12:00	23.1	23.1	23.1	56	13.8	8	16	225	0.0	1015.1	588	0.279	3.3
20091006 12:05	23.2	23.2	23.2	56	13.9	10	18	248	0.0	1015.1	268	0.000	2.5
20091006 12:10	23.1	23.1	23.1	56	13.8	11	18	270	0.0	1015.1	210	0.000	2.1
20091006 12:15	22.9	22.9	22.9	57	14.0	8	16	248	0.0	1015.1	197	0.000	2.0
20091006 12:20	22.8	22.8	22.8	58	14.1	8	14	270	0.0	1015.1	231	0.000	2.3
20091006 12:25	22.9	22.9	22.9	57	13.9	10	24	270	0.0	1015.2	317	0.000	2.5
20091006 12:30	23.0	23.0	23.0	58	14.3	11	18	270	0.0	1015.2	307	0.000	2.5
20091006 12:35	23.2	23.2	23.2	58	14.4	10	21	270	0.0	1015.3	326	0.000	2.7
20091006 12:40	23.3	23.3	23.3	56	14.0	13	21	270	0.0	1015.3	350	0.000	3.0
20091006 12:45	23.3	23.3	23.3	55	13.7	13	21	248	0.0	1015.3	296	0.000	2.5
20091006 12:50	23.3	23.3	23.3	58	14.6	10	18	270	0.0	1015.3	325	0.000	2.9
20091006 12:55	23.4	23.4	23.4	56	14.1	16	24	270	0.0	1015.3	285	0.000	2.7
20091006 13:00	23.3	23.3	23.3	56	14.0	13	23	270	0.0	1015.2	204	0.254	2.4
20091006 13:05	23.2	23.2	23.2	57	14.2	10	18	270	0.0	1015.1	197	0.000	2.3
20091006 13:10	23.1	23.1	23.1	59	14.7	8	14	270	0.0	1015.0	251	0.000	3.1
20091006 13:15	23.3	23.3	23.3	57	14.3	11	21	270	0.0	1015.0	331	0.000	2.9
20091006 13:20	23.3	23.3	23.3	56	14.0	14	23	270	0.0	1015.1	255	0.000	2.1
20091006 13:25	22.8	22.8	22.8	57	13.9	16	27	248	0.0	1015.1	198	0.000	1.8
20091006 13:30	22.4	22.4	22.4	59	14.0	11	23	270	0.0	1015.3	128	0.000	1.2
20091006 13:35	22.0	22.0	22.0	60	13.9	13	26	270	0.0	1015.3	118	0.000	1.1
20091006 13:40	21.8	21.8	21.8	60	13.7	11	21	248	0.0	1015.4	118	0.000	1.1
20091006 13:45	21.6	21.6	21.6	61	13.8	10	16	270	0.0	1015.3	157	0.000	1.4
20091006 13:50	21.7	21.7	21.7	61	13.8	8	14	270	0.0	1015.1	213	0.000	1.8
20091006 13:55	21.8	21.8	21.8	61	13.9	6	14	270	0.0	1015.1	268	0.000	2.1
20091006 14:00	21.9	21.9	21.9	60	13.8	10	18	248	0.0	1014.9	249	0.203	2.1
20091006 14:05	22.0	22.0	22.0	60	13.9	10	19	248	0.0	1015.0	257	0.000	2.2
20091006 14:10	22.1	22.1	22.1	60	14.0	11	26	270	0.0	1015.0	245	0.000	2.0
20091006 14:15	22.3	22.3	22.3	60	14.1	10	23	270	0.0	1014.9	294	0.000	2.3
20091006 14:20	22.4	22.4	22.4	60	14.2	11	21	248	0.0	1014.9	299	0.000	2.3
20091006 14:25	22.6	22.6	22.6	59	14.1	10	23	248	0.0	1014.8	352	0.000	2.5
20091006 14:30	23.1	23.1	23.1	57	14.1	10	19	248	0.0	1014.8	600	0.000	3.2
20091006 14:35	23.5	23.5	23.5	55	13.9	11	23	270	0.0	1014.6	339	0.000	2.5
20091006 14:40	23.4	23.4	23.4	55	13.8	10	18	270	0.0	1014.7	248	0.000	2.3
20091006 14:45	23.6	23.6	23.6	55	14.0	10	18	270	0.0	1014.7	557	0.000	2.6
20091006 14:50	23.4	23.4	23.4	55	13.9	10	18	270	0.0	1014.7	147	0.000	1.9
20091006 14:55	23.2	23.2	23.2	56	13.9	10	18	270	0.0	1014.6	396	0.000	2.2
20091006 15:00	23.2	23.2	23.2	56	13.9	8	18	248	0.0	1014.7	181	0.254	1.8
20091006 15:05	22.9	22.9	22.9	56	13.7	6	11	270	0.0	1014.8	156	0.000	1.6
20091006 15:10	22.7	22.7	22.7	57	13.8	6	11	270	0.0	1014.6	142	0.000	1.4
20091006 15:15	22.5	22.5	22.5	58	13.8	10	19	270	0.0	1014.7	149	0.000	1.3
20091006 15:20	22.3	22.3	22.3	58	13.7	6	14	270	0.0	1014.8	119	0.000	1.1
20091006 15:25	22.2	22.2	22.2	58	13.6	6	14	270	0.0	1014.8	128	0.000	0.9
20091006 15:30	22.1	22.1	22.1	58	13.5	10	16	248	0.0	1014.8	166	0.000	1.1
20091006 15:35	22.1	22.1	22.1	58	13.4	8	14	248	0.0	1014.8	127	0.000	0.9
20091006 15:40	21.9	21.9	21.9	59	13.6	6	11	270	0.0	1014.8	99	0.000	0.7
20091006 15:45	21.8	21.8	21.8	59	13.5	5	10	270	0.0	1014.8	72	0.000	0.4
20091006 15:50	21.7	21.7	21.7	61	13.9	5	8	248	0.0	1014.8	83	0.000	0.5
20091006 15:55	21.7	21.7	21.7	61	13.8	5	8	270	0.0	1014.8	111	0.000	0.7
20091006 16:00	21.6	21.6	21.6	61	13.8	5	8	270	0.0	1014.8	118	0.127	0.8
20091006 16:05	21.6	21.6	21.6	62	14.0	2	5	270	0.0	1014.5	127	0.000	0.8
20091006 16:10	21.7	21.7	21.7	60	13.6	3	8	270	0.0	1014.6	129	0.000	0.8
20091006 16:15	21.7	21.7	21.7	60	13.6	6	11	225	0.0	1014.7	152	0.000	0.8
20091006 16:20	21.8	21.8	21.8	60	13.7	6	11	270	0.0	1014.6	191	0.000	0.8
20091006 16:25	22.1	22.1	22.1	59	13.7	5	8	270	0.0	1014.6	170	0.000	0.8
20091006 16:30	22.2	22.2	22.2	57	13.2	5	11	270	0.0	1014.5	145	0.000	0.8
20091006 16:35	22.2	22.2	22.2	56	13.0	6	16	248	0.0	1014.5	149	0.000	0.7
20091006 16:40	22.2	22.2	22.2	57	13.3	5	8	270	0.0	1014.4	132	0.000	0.6
20091006 16:45	22.2	22.2	22.2	58	13.5	5	10	270	0.0	1014.4	124	0.000	0.6
20091006 16:50	22.2	22.2	22.2	57	13.2	5	8	270	0.0	1014.5	122	0.000	0.5
20091006 16:55	22.1	22.1	22.1	57	13.2	3	6	270	0.0	1014.4	107	0.000	0.5
20091006 17:00	22.1	22.1	22.1	57	13.1	3	6	270	0.0	1014.4	101	0.127	0.4
20091006 17:05	22.0	22.0	22.0	58	13.3	5	8	270	0.0	1014.4	90	0.000	0.0
20091006 17:10	21.9	21.9	21.9	57	13.0	3	8	270	0.0	1014.4	93	0.000	0.0
20091006 17:15	21.9	21.9	21.9	58	13.2	3	6	270	0.0	1014.3	95	0.000	0.0
20091006 17:20	21.8	21.8	21.8	58	13.2	2	6	270	0.0	1014.3	85	0.000	0.0
20091006 17:25	21.8	21.8	21.8	58	13.2	2	5	270	0.0	1014.3	82	0.000	0.0
20091006 17:30	21.8	21.8	21.8	57	12.9	3	6	270	0.0	1014.3	81	0.000	0.0
20091006 17:35	21.8	21.8	21.8	57	12.9	2	6	270	0.0	1014.2	73	0.000	0.0
20091006 17:40	21.8	21.8	21.8	58	13.2	0	3	270	0.0	1014.2	65	0.000	0.0
20091006 17:45	21.8	21.8	21.8	59	13.4	0	2	270	0.0	1014.2	59	0.000	0.0
20091006 17:50	21.7	21.7	21.7	60	13.6	0	2	270	0.0	1014.2	53	0.000	0.0
20091006 17:55	21.6	21.6	21.6	60	13.5	2	5	270	0.0	1014.3	45	0.000	0.0
20091006 18:00	21.4	21.4	21.4	61	13.6	0	2	270	0.0	1014.4	38	0.051	0.0
20091006 18:05	21.3	21.3	21.3	62	13.7	0	2	270	0.0	1014.5	32	0.000	0.0
20091006 18:10	21.2	21.2	21.2	62	13.6	0	3	270	0.0	1014.5	24	0.000	0.0
20091006 18:15	20.9	20.9	20.9	61	13.1	3	6	270	0.0	1014.7	20	0.000	0.0
20091006 18:20	20.7	20.7	20.7	61	12.9	3	6	270	0.0	1014.9	16	0.000	0.0
20091006 18:25	20.5	20.5	20.5	62	13.0	3	6	270	0.0	1015.0	10	0.000	0.0
20091006 18:30	20.3	20.3	20.3	63	13.1	2	6	270	0.0	1014.9	3	0.000	0.0
20091006 18:35	20.2	20.2	20.2	63	12.9	3	5	270	0.0	1014.8	0	0.000	0.0
20091006 18:40	20.1	20.1	20.1	63	12.8	3	6	270	0.0	1014.8	0	0.000	0.0
20091006 18:45	20.0	20.0	20.0	63	12.7	3	6	270	0.0	1014.9	0	0.000	0.0
20091006 18:50	19.9	19.9	19.9	64	12.9	3	8	270	0.0	1015.0	0	0.000	0.0
20091006 18:55	19.8	19.8	19.8	64	12.8	3	6	270	0.0	1015.0	0	0.000	0.0
20091006 19:00	19.7	19.7	19.7	65	13.0	2	6	270	0.0	1015.1	0	0.025	0.0
20091006 19:05	19.6	19.6	19.6	66	13.0	3	6	270	0.0	1015.4	0	0.000	0.0
20091006 19:10	19.4	19.4	19.4	67	13.2	3	6	270	0.0	1015.5	0	0.000	0.0
20091006 19:15	19.4	19.4	19.4	67	13.2	5	8	270	0.0	1015.5	0	0.000	0.0
20091006 19:20	19.4	19.4	19.4	68	13.3	5	8	248	0.0	1015.8	0	0.000	0.0
20091006 19:25	19.3	19.3	19.3	68	13.3	5	16	248	0.0	1015.8	0	0.000	0.0
20091006 19:30	19.4	19.4	19.4	68	13.3	8	14	248	0.0	1015.8	0	0.000	0.0
20091006 19:35	19.5	19.5	19.5	69	13.7	5	10	248	0.0	1015.9	0	0.000	0.0
20091006 19:40	19.6	19.6	19.6	69	13.7	6	11	248	0.0	1015.9	0	0.000	0.0
20091006 19:45	19.6	19.6	19.6	69	13.7	6	10	248	0.0	1016.0	0	0.000	0.0
20091006 19:50	19.5	19.5	19.5	70	13.9	5	16	225	0.0	1016.1	0	0.000	0.0
20091006 19:55	19.4	19.4	19.4	70	13.8	5	10	248	0.0	1016.0	0	0.000	0.0
20091006 20:00	19.4	19.4	19.4	70	13.8	6	16	248	0.0	1016.1	0	0.051	0.0
20091006 20:05	19.5	19.5	19.5	70	13.9	6	11	248	0.0	1016.0	0	0.000	0.0
20091006 20:10	19.5	19.5	19.5	69	13.7	8	14	270	0.0	1016.1	0	0.000	0.0
20091006 20:15	19.4	19.4	19.4	69	13.6	8	16	270	0.0	1016.2	0	0.000	0.0
20091006 20:20	19.4	19.4	19.4	69	13.6	8	18	270	0.0	1016.2	0	0.000	0.0
20091006 20:25	19.4	19.4	19.4	69	13.6	10	18	270	0.0	1016.3	0	0.000	0.0
20091006 20:30	19.4	19.4	19.4	70	13.8	10	19	270	0.0	1016.3	0	0.000	0.0
20091006 20:35	19.3	19.3	19.3	71	13.9	11	21	270	0.0	1016.3	0	0.000	0.0
20091006 20:40	19.1	19.1	19.1	71	13.7	11	21	270	0.0	1016.3	0	0.000	0.0
20091006 20:45	18.8	18.8	18.8	73	13.9	8	14	270	0.0	1016.3	0	0.000	0.0
20091006 20:50	18.6	18.6	18.6	74	13.9	8	14	270	0.0	1016.3	0	0.000	0.0
20091006 20:55	18.4	18.4	18.4	75	13.9	6	10	270	0.0	1016.4	0	0.000	0.0
20091006 21:00	18.3	18.3	18.3	75	13.8	5	10	248	0.0	1016.3	0	0.051	0.0
20091006 21:05	18.2	18.2	18.2	76	13.9	6	11	248	0.0	1016.1	0	0.000	0.0
20091006 21:10	18.1	18.1	18.1	76	13.8	6	11	225	0.0	1016.0	0	0.000	0.0
20091006 21:15	18.0	18.0	18.0	77	13.9	6	10	248	0.2	1016.0	0	0.000	0.0
20091006 21:20	17.9	17.9	17.9	78	14.0	5	10	248	0.0	1016.0	0	0.000	0.0
20091006 21:25	17.7	17.7	17.7	79	14.0	6	11	202	0.0	1015.8	0	0.000	0.0
20091006 21:30	17.6	17.6	17.6	80	14.1	5	11	202	0.0	1015.8	0	0.000	0.0
20091006 21:35	17.4	17.4	17.4	80	14.0	5	11	202	0.0	1015.7	0	0.000	0.0
20091006 21:40	17.3	17.3	17.3	81	14.0	6	11	202	0.0	1015.8	0	0.000	0.0
20091006 21:45	17.2	17.2	17.2	81	13.9	6	10	202	0.0	1015.8	0	0.000	0.0
20091006 21:50	17.1	17.1	17.1	82	14.0	6	11	202	0.0	1015.9	0	0.000	0.0
20091006 21:55	17.1	17.1	17.1	82	14.0	8	14	202	0.0	1015.8	0	0.000	0.0
20091006 22:00	17.1	17.1	17.1	82	14.0	8	18	202	0.0	1015.8	0	0.025	0.0
20091006 22:05	17.1	17.1	17.1	82	14.0	8	16	202	0.0	1015.7	0	0.000	0.0
20091006 22:10	17.1	17.1	17.1	82	14.0	8	13	225	0.0	1015.7	0	0.000	0.0
20091006 22:15	17.1	17.1	17.1	82	14.0	6	14	225	0.0	1015.7	0	0.000	0.0
20091006 22:20	17.1	17.1	17.1	82	14.0	8	16	225	0.0	1015.7	0	0.000	0.0
20091006 22:25	17.1	17.1	17.1	82	14.0	8	16	225	0.0	1015.6	0	0.000	0.0
20091006 22:30	17.1	17.1	17.1	81	13.8	10	18	225	0.0	1015.5	0	0.000	0.0
20091006 22:35	17.1	17.1	17.1	80	13.6	8	21	225	0.0	1015.4	0	0.000	0.0
20091006 22:40	17.2	17.2	17.2	80	13.7	10	18	225	0.0	1015.3	0	0.000	0.0
20091006 22:45	17.2	17.2	17.2	80	13.7	10	19	225	0.0	1015.4	0	0.000	0.0
20091006 22:50	17.3	17.3	17.3	80	13.8	10	18	225	0.0	1015.4	0	0.000	0.0
20091006 22:55	17.3	17.3	17.3	79	13.6	8	16	225	0.0	1015.4	0	0.000	0.0
20091006 23:00	17.3	17.3	17.3	79	13.6	8	16	225	0.0	1015.5	0	0.025	0.0
20091006 23:05	17.3	17.3	17.3	79	13.6	8	16	225	0.0	1015.4	0	0.000	0.0
20091006 23:10	17.3	17.3	17.3	79	13.7	6	14	225	0.0	1015.3	0	0.000	0.0
20091006 23:15	17.3	17.3	17.3	79	13.6	6	16	225	0.0	1015.4	0	0.000	0.0
20091006 23:20	17.3	17.3	17.3	78	13.5	8	16	225	0.0	1015.5	0	0.000	0.0
20091006 23:25	17.3	17.3	17.3	78	13.5	8	18	225	0.0	1015.6	0	0.000	0.0
20091006 23:30	17.4	17.4	17.4	77	13.3	11	21	225	0.0	1015.6	0	0.000	0.0
20091006 23:35	17.7	17.7	17.7	74	13.0	14	23	248	0.0	1015.5	0	0.000	0.0
20091006 23:40	18.1	18.1	18.1	73	13.2	13	24	248	0.0	1015.5	0	0.000	0.0
20091006 23:45	18.4	18.4	18.4	71	13.1	13	24	248	0.0	1015.6	0	0.000	0.0
20091006 23:50	18.7	18.7	18.7	70	13.1	11	23	248	0.0	1015.5	0	0.000	0.0
20091006 23:55	18.8	18.8	18.8	69	13.0	13	19	248	0.0	1015.5	0	0.000	0.0



Please note the license to use and transfer of this data:
http://creativecommons.org/licenses/by-nc-sa/3.0/deed.en

Bitte beachten sie die Lizenz zur Verwertung und Weitergabe der Daten:
http://creativecommons.org/licenses/by-nc-sa/3.0/deed.de

zurück zur Übersicht der Archivdaten (Monats und Tagesdaten)

Cookies helfen bei der Bereitstellung von Inhalten. Durch die Nutzung dieser Seiten erklärst du dich damit einverstanden, dass Cookies auf deinem Rechner gespeichert werden. Weitere Information